Time;durP1;ratioP1;P1;durP2;ratioP2;P2;SDS_P1;SDS_P2;PMS_P1;PMS_P2;Temp;Humidity;BMP_temperature;BMP_pressure;BME280_temperature;BME280_humidity;BME280_pressure;Samples;Min_cycle;Max_cycle;Signal;HPM_P1;HPM_P2
2023/02/13 00:01:02;;;;;;;1.57;1.10;;;9.10;98.20;;;;;;5066893;28;20461;-73
2023/02/13 00:03:28;;;;;;;1.57;1.20;;;9.10;98.20;;;;;;5080575;28;20869;-73
2023/02/13 00:05:55;;;;;;;1.60;1.30;;;9.10;98.20;;;;;;5075025;28;20552;-73
2023/02/13 00:08:22;;;;;;;1.60;1.30;;;9.10;98.20;;;;;;5078421;28;20479;-75
2023/02/13 00:10:49;;;;;;;1.60;1.40;;;9.10;98.20;;;;;;5076370;28;21041;-73
2023/02/13 00:13:16;;;;;;;1.60;1.10;;;9.10;98.20;;;;;;5070302;28;20576;-73
2023/02/13 00:15:43;;;;;;;1.57;1.20;;;9.10;98.20;;;;;;5086502;28;20560;-73
2023/02/13 00:18:12;;;;;;;1.57;1.10;;;9.10;98.20;;;;;;5067650;28;20472;-73
2023/02/13 00:20:38;;;;;;;1.60;1.20;;;9.10;98.20;;;;;;5087519;28;20517;-73
2023/02/13 00:23:05;;;;;;;1.53;1.17;;;9.10;98.20;;;;;;5064752;28;20485;-73
2023/02/13 00:25:32;;;;;;;1.70;1.53;;;9.10;98.20;;;;;;5075685;28;20631;-73
2023/02/13 00:27:59;;;;;;;1.53;1.10;;;9.10;98.20;;;;;;5065376;28;20483;-73
2023/02/13 00:30:26;;;;;;;1.57;1.17;;;9.10;98.20;;;;;;5084482;28;20464;-73
2023/02/13 00:32:53;;;;;;;1.60;1.30;;;9.10;98.20;;;;;;5070039;28;20487;-73
2023/02/13 00:35:21;;;;;;;1.60;1.20;;;9.10;98.20;;;;;;5086430;28;21006;-73
2023/02/13 00:37:48;;;;;;;1.53;1.20;;;9.10;98.20;;;;;;5066711;28;20518;-73
2023/02/13 00:40:15;;;;;;;1.60;1.30;;;9.10;98.20;;;;;;5086956;28;20537;-73
2023/02/13 00:42:42;;;;;;;1.60;1.20;;;9.10;98.20;;;;;;5061253;28;20579;-73
2023/02/13 00:45:10;;;;;;;1.60;1.10;;;9.10;98.20;;;;;;5070264;28;20533;-74
2023/02/13 00:47:37;;;;;;;1.60;1.20;;;9.10;98.20;;;;;;5061706;28;20476;-73
2023/02/13 00:50:04;;;;;;;1.60;1.20;;;9.10;98.20;;;;;;5086013;28;20907;-73
2023/02/13 00:52:32;;;;;;;1.57;1.10;;;9.00;98.20;;;;;;5073824;28;21030;-73
2023/02/13 00:54:59;;;;;;;1.50;1.17;;;9.00;98.20;;;;;;5077744;28;20462;-73
2023/02/13 00:57:26;;;;;;;1.60;1.20;;;9.00;98.20;;;;;;5067915;28;20798;-73
2023/02/13 00:59:53;;;;;;;2.33;2.13;;;9.00;98.20;;;;;;5085146;28;20860;-73
2023/02/13 01:02:20;;;;;;;1.57;1.10;;;9.00;98.20;;;;;;5072657;28;20507;-73
2023/02/13 01:04:47;;;;;;;1.60;1.20;;;9.00;98.20;;;;;;5085632;28;20463;-74
2023/02/13 01:07:14;;;;;;;1.57;1.10;;;9.00;98.20;;;;;;5066949;28;20484;-73
2023/02/13 01:09:42;;;;;;;1.60;1.10;;;9.00;98.20;;;;;;5086068;28;20543;-73
2023/02/13 01:12:10;;;;;;;1.60;1.10;;;9.00;98.20;;;;;;5052544;28;20484;-73
2023/02/13 01:14:37;;;;;;;1.60;1.10;;;9.00;98.20;;;;;;5085879;28;20452;-73
2023/02/13 01:17:04;;;;;;;1.60;1.20;;;9.00;98.20;;;;;;5066429;28;20515;-73
2023/02/13 01:19:31;;;;;;;1.60;1.10;;;9.00;98.20;;;;;;5078452;28;20452;-74
2023/02/13 01:21:57;;;;;;;1.53;1.10;;;9.00;98.20;;;;;;5067338;28;20517;-73
2023/02/13 01:24:28;;;;;;;1.60;1.10;;;9.00;98.20;;;;;;5085902;28;20979;-73
2023/02/13 01:26:57;;;;;;;1.60;1.20;;;9.00;98.20;;;;;;5066656;28;20543;-73
2023/02/13 01:29:24;;;;;;;1.60;1.20;;;9.00;98.20;;;;;;5085808;28;20476;-73
2023/02/13 01:31:51;;;;;;;1.57;1.10;;;9.00;98.20;;;;;;5072720;28;20489;-73
2023/02/13 01:34:19;;;;;;;1.60;1.20;;;9.00;98.20;;;;;;5085604;28;20462;-73
2023/02/13 01:36:46;;;;;;;1.57;1.10;;;9.00;98.20;;;;;;5066422;28;20485;-74
2023/02/13 01:39:13;;;;;;;1.57;1.10;;;9.00;98.20;;;;;;5085746;28;21068;-73
2023/02/13 01:41:40;;;;;;;1.57;1.13;;;8.90;98.20;;;;;;5068248;28;20477;-73
2023/02/13 01:44:37;;;;;;;1.53;1.10;;;9.00;98.20;;;;;;5065783;28;20464;-73
2023/02/13 01:47:05;;;;;;;1.60;1.17;;;9.00;98.20;;;;;;5065959;28;20586;-73
2023/02/13 01:49:32;;;;;;;1.60;1.20;;;8.90;98.20;;;;;;5083155;28;21021;-74
2023/02/13 01:52:00;;;;;;;1.70;1.40;;;8.90;98.20;;;;;;5061304;28;20537;-73
2023/02/13 01:54:30;;;;;;;1.60;1.23;;;8.90;98.20;;;;;;5089933;28;20639;-73
2023/02/13 01:57:03;;;;;;;1.60;1.30;;;8.90;98.20;;;;;;5070027;28;20480;-73
2023/02/13 01:59:33;;;;;;;1.53;1.20;;;8.90;98.20;;;;;;5089119;28;20537;-74
2023/02/13 02:02:02;;;;;;;1.57;1.10;;;8.90;98.20;;;;;;5070443;28;20489;-75
2023/02/13 02:04:34;;;;;;;1.60;1.23;;;8.90;98.20;;;;;;5088983;28;20471;-73
2023/02/13 02:07:06;;;;;;;1.60;1.10;;;8.80;98.20;;;;;;5069920;28;20513;-73
2023/02/13 02:09:37;;;;;;;1.60;1.20;;;8.80;98.20;;;;;;5088838;28;20480;-73
2023/02/13 02:12:08;;;;;;;2.00;1.63;;;8.80;98.20;;;;;;5070110;28;20492;-73
2023/02/13 02:14:36;;;;;;;1.60;1.10;;;8.80;98.20;;;;;;5088285;28;21115;-73
2023/02/13 02:17:03;;;;;;;1.60;1.20;;;8.80;98.20;;;;;;5069299;28;20568;-73
2023/02/13 02:19:39;;;;;;;1.50;1.10;;;8.80;98.20;;;;;;5088891;28;20464;-73
2023/02/13 02:22:30;;;;;;;1.60;1.20;;;8.80;98.20;;;;;;5070086;28;20621;-73
2023/02/13 02:25:35;;;;;;;1.50;1.10;;;8.80;98.20;;;;;;5079177;28;20540;-74
2023/02/13 02:28:37;;;;;;;1.57;1.10;;;8.80;98.20;;;;;;5057374;28;20809;-73
2023/02/13 02:31:38;;;;;;;1.60;1.20;;;8.80;98.20;;;;;;5027411;28;20531;-74
2023/02/13 02:34:17;;;;;;;2.37;2.17;;;8.80;98.20;;;;;;5068830;28;20456;-73
2023/02/13 02:36:59;;;;;;;1.60;1.10;;;8.80;98.20;;;;;;5076512;28;20484;-76
2023/02/13 02:39:36;;;;;;;1.53;1.10;;;8.80;98.20;;;;;;5077583;28;20480;-73
2023/02/13 02:42:18;;;;;;;1.57;1.10;;;8.80;98.20;;;;;;5069466;28;20535;-73
2023/02/13 02:44:51;;;;;;;1.60;1.20;;;8.80;98.20;;;;;;5079632;28;20537;-73
2023/02/13 02:50:26;;;;;;;1.57;1.17;;;8.80;98.20;;;;;;5088617;28;20444;-73
2023/02/13 02:53:25;;;;;;;1.70;1.50;;;8.80;98.20;;;;;;5070126;28;20536;-73
2023/02/13 02:55:58;;;;;;;1.60;1.20;;;8.80;98.20;;;;;;5050234;28;20518;-73
2023/02/13 03:06:54;;;;;;;1.60;1.20;;;8.70;98.20;;;;;;5065793;28;20520;-74
2023/02/13 03:14:58;;;;;;;1.53;1.10;;;8.70;98.20;;;;;;5079381;28;20448;-74
2023/02/13 03:23:13;;;;;;;1.63;1.30;;;8.70;98.20;;;;;;5075775;28;21008;-74
2023/02/13 03:25:57;;;;;;;1.60;1.10;;;8.70;98.20;;;;;;5080556;28;20457;-73
2023/02/13 03:31:26;;;;;;;1.60;1.20;;;8.70;98.20;;;;;;5067166;28;21033;-73
2023/02/13 03:34:01;;;;;;;1.60;1.20;;;8.60;98.20;;;;;;5069082;28;20460;-73
2023/02/13 03:39:31;;;;;;;1.60;1.30;;;8.60;98.20;;;;;;5074619;28;20441;-74
2023/02/13 03:42:01;;;;;;;1.60;1.40;;;8.60;98.20;;;;;;5060135;28;20516;-73
2023/02/13 03:44:33;;;;;;;1.60;1.20;;;8.60;98.20;;;;;;5081392;28;20468;-73
2023/02/13 03:47:02;;;;;;;1.60;1.10;;;8.60;98.20;;;;;;5067873;28;20485;-73
2023/02/13 03:52:24;;;;;;;1.60;1.20;;;8.60;98.20;;;;;;5064857;28;20543;-73
2023/02/13 04:00:35;;;;;;;1.60;1.30;;;8.50;98.20;;;;;;5071196;28;20878;-73
2023/02/13 04:03:14;;;;;;;1.60;1.20;;;8.50;98.20;;;;;;5067333;28;20505;-73
2023/02/13 04:05:46;;;;;;;1.60;1.23;;;8.50;98.20;;;;;;5087313;28;20556;-73
2023/02/13 04:08:13;;;;;;;1.60;1.30;;;8.50;98.20;;;;;;5043908;28;20983;-73
2023/02/13 04:10:49;;;;;;;1.60;1.20;;;8.50;98.20;;;;;;5078237;28;20470;-73
2023/02/13 04:13:22;;;;;;;1.60;1.30;;;8.50;98.20;;;;;;5052300;28;20479;-73
2023/02/13 04:15:54;;;;;;;1.60;1.40;;;8.50;98.20;;;;;;5060021;28;20481;-74
2023/02/13 04:18:25;;;;;;;1.60;1.30;;;8.50;98.20;;;;;;5073575;28;20456;-74
2023/02/13 04:20:52;;;;;;;1.60;1.20;;;8.50;98.20;;;;;;5076192;28;20460;-74
2023/02/13 04:23:21;;;;;;;1.60;1.30;;;8.50;98.20;;;;;;5068096;28;20862;-73
2023/02/13 04:25:52;;;;;;;1.60;1.30;;;8.50;98.20;;;;;;5077923;28;20999;-74
2023/02/13 04:28:19;;;;;;;1.60;1.20;;;8.50;98.20;;;;;;5079665;28;21009;-74
2023/02/13 04:30:46;;;;;;;1.60;1.20;;;8.50;98.20;;;;;;5077510;28;21028;-74
2023/02/13 04:33:13;;;;;;;1.60;1.40;;;8.50;98.20;;;;;;5023108;28;20477;-74
2023/02/13 04:35:40;;;;;;;1.60;1.30;;;8.50;98.20;;;;;;5057421;28;20457;-73
2023/02/13 04:38:07;;;;;;;1.60;1.20;;;8.50;98.20;;;;;;5044741;28;20486;-73
2023/02/13 04:40:35;;;;;;;3.03;2.07;;;8.50;98.20;;;;;;5049071;28;20461;-73
2023/02/13 04:43:03;;;;;;;1.60;1.30;;;8.50;98.20;;;;;;5042646;28;20792;-73
2023/02/13 04:45:30;;;;;;;2.77;2.57;;;8.40;98.20;;;;;;5050334;28;20467;-74
2023/02/13 04:47:58;;;;;;;4.00;3.13;;;8.40;98.20;;;;;;5039802;28;20477;-74
2023/02/13 04:50:26;;;;;;;1.60;1.30;;;8.40;98.20;;;;;;5054007;28;20485;-73
2023/02/13 04:52:54;;;;;;;1.60;1.20;;;8.40;98.20;;;;;;5036960;28;20486;-73
2023/02/13 04:55:22;;;;;;;1.60;1.30;;;8.40;98.20;;;;;;5056509;28;20564;-74
2023/02/13 04:57:51;;;;;;;1.53;1.10;;;8.40;98.20;;;;;;5039919;28;20491;-73
2023/02/13 05:00:21;;;;;;;1.57;1.13;;;8.40;98.20;;;;;;5056419;28;20545;-73
2023/02/13 05:02:48;;;;;;;1.53;1.10;;;8.40;98.20;;;;;;5036860;28;21044;-73
2023/02/13 05:05:15;;;;;;;1.80;1.60;;;8.40;98.20;;;;;;5055505;28;20822;-73
2023/02/13 05:07:43;;;;;;;1.60;1.30;;;8.40;98.20;;;;;;5046192;28;20481;-75
2023/02/13 05:10:10;;;;;;;1.60;1.37;;;8.40;98.20;;;;;;5053396;28;20505;-73
2023/02/13 05:12:37;;;;;;;1.60;1.40;;;8.30;98.20;;;;;;5044152;28;20637;-73
2023/02/13 05:15:06;;;;;;;1.60;1.20;;;8.40;98.20;;;;;;5057905;28;21154;-73
2023/02/13 05:17:34;;;;;;;1.60;1.10;;;8.40;98.20;;;;;;5043648;28;20495;-73
2023/02/13 05:20:01;;;;;;;1.60;1.20;;;8.30;98.20;;;;;;5047974;28;20454;-74
2023/02/13 05:25:13;;;;;;;2.80;2.60;;;8.30;98.20;;;;;;5057430;28;20445;-74
2023/02/13 05:27:40;;;;;;;1.60;1.10;;;8.30;98.20;;;;;;5045442;28;20577;-74
2023/02/13 05:30:08;;;;;;;1.60;1.20;;;8.30;98.20;;;;;;5055298;28;20702;-75
2023/02/13 05:32:37;;;;;;;1.97;1.77;;;8.30;98.20;;;;;;5043008;28;20573;-76
2023/02/13 05:35:04;;;;;;;1.60;1.30;;;8.30;98.20;;;;;;5053816;28;20510;-74
2023/02/13 05:37:32;;;;;;;1.60;1.23;;;8.20;98.20;;;;;;5044965;28;20486;-73
2023/02/13 05:39:59;;;;;;;1.60;1.23;;;8.20;98.20;;;;;;5055148;28;20488;-74
2023/02/13 05:42:26;;;;;;;1.60;1.23;;;8.20;98.20;;;;;;5041417;28;20900;-73
2023/02/13 05:44:53;;;;;;;1.60;1.30;;;8.20;98.20;;;;;;5058627;28;20461;-73
2023/02/13 05:47:20;;;;;;;1.60;1.30;;;8.20;98.20;;;;;;5047979;28;20500;-74
2023/02/13 05:49:49;;;;;;;1.60;1.33;;;8.10;98.20;;;;;;5059691;28;20550;-73
2023/02/13 05:52:16;;;;;;;1.60;1.30;;;8.10;98.20;;;;;;5044120;28;20561;-74
2023/02/13 05:54:43;;;;;;;1.57;1.20;;;8.00;98.20;;;;;;5054215;28;20466;-75
2023/02/13 05:57:10;;;;;;;1.60;1.20;;;8.00;98.20;;;;;;5042905;28;20563;-77
2023/02/13 05:59:38;;;;;;;1.53;1.20;;;8.00;98.20;;;;;;5055106;28;20466;-73
2023/02/13 06:02:06;;;;;;;1.57;1.20;;;7.90;98.20;;;;;;5042651;28;20494;-73
2023/02/13 06:04:33;;;;;;;1.60;1.40;;;7.90;98.20;;;;;;5053880;28;20458;-73
2023/02/13 06:07:01;;;;;;;1.60;1.20;;;7.90;98.20;;;;;;5043907;28;20990;-73
2023/02/13 06:09:28;;;;;;;1.60;1.33;;;7.80;98.20;;;;;;5061583;28;20482;-73
2023/02/13 06:11:55;;;;;;;1.57;1.20;;;7.80;98.20;;;;;;5066927;28;20731;-72
2023/02/13 06:14:22;;;;;;;1.60;1.20;;;7.70;98.20;;;;;;5080704;28;20558;-73
2023/02/13 06:16:49;;;;;;;1.60;1.30;;;7.70;98.20;;;;;;5069010;28;20479;-73
2023/02/13 06:19:16;;;;;;;1.60;1.20;;;7.70;98.20;;;;;;5078389;28;20552;-73
2023/02/13 06:21:43;;;;;;;1.60;1.33;;;7.70;98.20;;;;;;5062099;28;21095;-74
2023/02/13 06:24:12;;;;;;;1.60;1.20;;;7.60;98.20;;;;;;5075874;28;20457;-73
2023/02/13 06:26:38;;;;;;;1.60;1.23;;;7.60;98.20;;;;;;5069522;28;20606;-73
2023/02/13 06:29:07;;;;;;;1.93;1.50;;;7.60;98.20;;;;;;5087053;28;20485;-71
2023/02/13 06:31:34;;;;;;;1.60;1.20;;;7.60;98.20;;;;;;5075593;28;20480;-73
2023/02/13 06:34:01;;;;;;;1.60;1.27;;;7.50;98.20;;;;;;5086049;28;20857;-73
2023/02/13 06:36:28;;;;;;;1.60;1.20;;;7.50;98.20;;;;;;5075300;28;20943;-73
2023/02/13 06:38:55;;;;;;;1.60;1.33;;;7.50;98.20;;;;;;5087300;28;20555;-74
2023/02/13 06:41:24;;;;;;;1.60;1.30;;;7.40;98.20;;;;;;5073813;28;21065;-74
2023/02/13 06:43:51;;;;;;;1.60;1.30;;;7.40;98.20;;;;;;5075675;28;20459;-73
2023/02/13 06:46:18;;;;;;;1.60;1.20;;;7.40;98.20;;;;;;5067350;28;20607;-73
2023/02/13 06:48:46;;;;;;;1.60;1.27;;;7.40;98.20;;;;;;5073449;28;20460;-73
2023/02/13 06:51:13;;;;;;;1.60;1.20;;;7.30;98.20;;;;;;5066265;28;20472;-73
2023/02/13 06:53:40;;;;;;;1.60;1.20;;;7.30;98.20;;;;;;5082531;28;20596;-73
2023/02/13 06:56:08;;;;;;;2.70;2.50;;;7.30;98.20;;;;;;5068169;28;20540;-73
2023/02/13 06:58:37;;;;;;;1.60;1.30;;;7.30;98.20;;;;;;5086956;28;20990;-73
2023/02/13 07:01:04;;;;;;;1.60;1.23;;;7.30;98.20;;;;;;5053486;28;21100;-73
2023/02/13 07:03:32;;;;;;;2.20;2.00;;;7.30;98.20;;;;;;5078397;28;20559;-73
2023/02/13 07:05:59;;;;;;;1.60;1.20;;;7.30;98.20;;;;;;5075526;28;20476;-73
2023/02/13 07:08:26;;;;;;;1.60;1.30;;;7.20;98.20;;;;;;5072094;28;20952;-73
2023/02/13 07:10:54;;;;;;;1.60;1.20;;;7.20;98.20;;;;;;5076552;28;20541;-73
2023/02/13 07:13:21;;;;;;;1.90;1.63;;;7.20;98.20;;;;;;5073336;28;20493;-73
2023/02/13 07:15:49;;;;;;;1.60;1.27;;;7.30;98.20;;;;;;5084328;28;20471;-73
2023/02/13 07:18:16;;;;;;;1.60;1.20;;;7.30;98.20;;;;;;5085088;28;20941;-73
2023/02/13 07:20:43;;;;;;;1.60;1.30;;;7.30;98.20;;;;;;5088367;28;21039;-73
2023/02/13 07:23:11;;;;;;;1.60;1.30;;;7.30;98.20;;;;;;5074573;28;20539;-72
2023/02/13 07:25:38;;;;;;;2.50;2.27;;;7.30;98.20;;;;;;5072423;28;20469;-73
2023/02/13 07:28:07;;;;;;;1.60;1.20;;;7.30;98.20;;;;;;5072978;28;20567;-72
2023/02/13 07:30:35;;;;;;;1.60;1.20;;;7.30;98.20;;;;;;5081465;28;21028;-73
2023/02/13 07:33:04;;;;;;;1.60;1.30;;;7.30;98.20;;;;;;5073703;28;20767;-73
2023/02/13 07:35:32;;;;;;;1.77;1.67;;;7.30;98.20;;;;;;5088435;28;20948;-73
2023/02/13 07:38:00;;;;;;;1.60;1.30;;;7.40;98.20;;;;;;5073502;28;20490;-73
2023/02/13 07:40:27;;;;;;;1.60;1.20;;;7.40;98.20;;;;;;5080247;28;21060;-72
2023/02/13 07:42:54;;;;;;;1.60;1.20;;;7.50;98.20;;;;;;5068238;28;20488;-72
2023/02/13 07:45:21;;;;;;;1.60;1.20;;;7.60;98.20;;;;;;5078890;28;20902;-72
2023/02/13 07:47:48;;;;;;;1.60;1.20;;;7.60;98.20;;;;;;5066847;28;20908;-73
2023/02/13 07:50:17;;;;;;;2.03;1.77;;;7.70;98.20;;;;;;5080988;28;20571;-73
2023/02/13 07:52:52;;;;;;;1.90;1.77;;;7.70;98.20;;;;;;5068228;28;20492;-73
2023/02/13 07:55:19;;;;;;;2.83;2.63;;;7.80;98.20;;;;;;5087778;28;20563;-73
2023/02/13 07:57:47;;;;;;;1.60;1.20;;;7.90;98.20;;;;;;5072080;28;20484;-73
2023/02/13 08:00:15;;;;;;;2.23;2.03;;;7.90;98.20;;;;;;5076057;28;20488;-73
2023/02/13 08:02:43;;;;;;;1.60;1.20;;;8.00;98.20;;;;;;5071580;28;20492;-73
2023/02/13 08:05:10;;;;;;;1.60;1.20;;;8.10;98.20;;;;;;5070681;28;20890;-72
2023/02/13 08:07:39;;;;;;;1.60;1.20;;;8.20;98.20;;;;;;5065473;28;20476;-72
2023/02/13 08:12:54;;;;;;;1.60;1.30;;;8.30;98.20;;;;;;5063014;28;20658;-72
2023/02/13 08:15:21;;;;;;;1.60;1.20;;;8.40;98.20;;;;;;5074477;28;20454;-72
2023/02/13 08:17:48;;;;;;;1.60;1.30;;;8.50;98.20;;;;;;5062791;28;20529;-73
2023/02/13 08:20:17;;;;;;;2.50;2.30;;;8.50;98.20;;;;;;5077492;28;20460;-72
2023/02/13 08:22:46;;;;;;;1.53;1.20;;;8.60;98.20;;;;;;5069735;28;20484;-74
2023/02/13 08:25:13;;;;;;;1.60;1.30;;;8.60;98.20;;;;;;5072365;28;20456;-73
2023/02/13 08:27:40;;;;;;;1.63;1.20;;;8.70;98.20;;;;;;5067427;28;20520;-73
2023/02/13 08:30:09;;;;;;;1.60;1.20;;;8.80;98.20;;;;;;5087123;28;20512;-73
2023/02/13 08:32:36;;;;;;;1.60;1.30;;;8.80;98.20;;;;;;5068497;28;20484;-73
2023/02/13 08:35:04;;;;;;;1.60;1.20;;;8.90;98.20;;;;;;5086858;28;20846;-74
2023/02/13 08:37:31;;;;;;;1.60;1.20;;;9.00;98.20;;;;;;5060880;28;20485;-75
2023/02/13 08:39:59;;;;;;;1.60;1.20;;;9.00;98.20;;;;;;5084544;28;20457;-74
2023/02/13 08:42:27;;;;;;;1.60;1.30;;;9.10;98.20;;;;;;5068000;28;20488;-75
2023/02/13 08:44:54;;;;;;;1.70;1.60;;;9.20;98.20;;;;;;5086938;28;20483;-74
2023/02/13 08:47:22;;;;;;;2.17;1.97;;;9.20;98.20;;;;;;5073795;28;20555;-75
2023/02/13 08:49:49;;;;;;;1.60;1.30;;;9.20;98.20;;;;;;5077573;28;20493;-74
2023/02/13 08:52:16;;;;;;;1.60;1.30;;;9.30;98.20;;;;;;5068029;28;20484;-74
2023/02/13 08:54:43;;;;;;;1.60;1.20;;;9.30;98.20;;;;;;5075641;28;20460;-74
2023/02/13 08:57:12;;;;;;;1.60;1.10;;;9.30;98.20;;;;;;5047065;28;20477;-76
2023/02/13 08:59:39;;;;;;;1.70;1.50;;;9.40;98.20;;;;;;5059474;28;20457;-73
2023/02/13 09:02:06;;;;;;;1.57;1.10;;;9.50;98.20;;;;;;5058802;28;21018;-73
2023/02/13 09:04:33;;;;;;;1.60;1.20;;;9.50;98.20;;;;;;5053426;28;20463;-73
2023/02/13 09:07:01;;;;;;;1.60;1.10;;;9.70;98.20;;;;;;5052593;28;20484;-73
2023/02/13 09:09:28;;;;;;;1.60;1.20;;;9.70;98.20;;;;;;5050738;28;20556;-73
2023/02/13 09:11:56;;;;;;;1.60;1.20;;;9.80;98.20;;;;;;5053395;28;20489;-73
2023/02/13 09:14:25;;;;;;;1.60;1.20;;;9.80;98.20;;;;;;5058413;28;20456;-75
2023/02/13 09:16:53;;;;;;;1.60;1.10;;;9.90;98.20;;;;;;5062743;28;20503;-73
2023/02/13 09:19:20;;;;;;;2.80;2.17;;;10.00;98.20;;;;;;5050935;28;20870;-74
2023/02/13 09:21:47;;;;;;;1.60;1.20;;;10.10;98.20;;;;;;5062363;28;21005;-74
2023/02/13 09:24:14;;;;;;;1.57;1.10;;;10.10;98.20;;;;;;5051545;28;20457;-74
2023/02/13 09:26:41;;;;;;;1.60;1.10;;;10.10;98.20;;;;;;5061904;28;20563;-74
2023/02/13 09:29:08;;;;;;;1.60;1.10;;;10.10;98.20;;;;;;5048968;28;20465;-74
2023/02/13 09:31:37;;;;;;;1.60;1.10;;;10.30;98.20;;;;;;5061338;28;20480;-74
2023/02/13 09:34:05;;;;;;;1.60;1.20;;;10.40;98.20;;;;;;5057531;28;20504;-73
2023/02/13 09:36:33;;;;;;;1.60;1.20;;;10.50;98.20;;;;;;5060422;28;20468;-74
2023/02/13 09:39:00;;;;;;;1.57;1.10;;;10.60;98.20;;;;;;5058235;28;20596;-74
2023/02/13 09:41:29;;;;;;;1.60;1.40;;;10.70;98.20;;;;;;5060993;28;20522;-74
2023/02/13 09:44:00;;;;;;;1.60;1.13;;;10.80;98.20;;;;;;5059109;28;20531;-74
2023/02/13 09:46:33;;;;;;;1.60;1.13;;;10.90;98.20;;;;;;5059880;28;20953;-74
2023/02/13 09:49:07;;;;;;;1.60;1.07;;;10.90;98.20;;;;;;5050382;28;20840;-74
2023/02/13 09:51:35;;;;;;;1.60;1.10;;;10.90;98.20;;;;;;5060705;28;20486;-74
2023/02/13 09:54:05;;;;;;;1.60;1.23;;;11.00;98.20;;;;;;5049819;28;20954;-72
2023/02/13 09:56:49;;;;;;;1.60;1.20;;;11.00;98.20;;;;;;5055921;28;20481;-74
2023/02/13 09:59:32;;;;;;;1.60;1.10;;;11.00;98.20;;;;;;5050011;28;20833;-74
2023/02/13 10:02:11;;;;;;;7.13;2.07;;;11.10;98.20;;;;;;5059603;28;20510;-74
2023/02/13 10:04:47;;;;;;;1.53;1.10;;;11.10;98.20;;;;;;5053930;28;20465;-74
2023/02/13 10:07:26;;;;;;;1.57;1.17;;;11.20;98.20;;;;;;5049712;28;21040;-74
2023/02/13 10:10:02;;;;;;;2.67;2.47;;;11.20;98.20;;;;;;5058719;28;20575;-74
2023/02/13 10:12:50;;;;;;;1.60;1.10;;;11.20;98.20;;;;;;5059043;28;20861;-74
2023/02/13 10:15:26;;;;;;;1.53;1.00;;;11.30;98.20;;;;;;5063136;28;20464;-74
2023/02/13 10:17:58;;;;;;;3.30;1.63;;;11.30;98.20;;;;;;5058880;28;20855;-73
2023/02/13 10:20:31;;;;;;;1.60;1.10;;;11.40;98.20;;;;;;5064450;28;20484;-75
2023/02/13 10:23:06;;;;;;;1.60;1.20;;;11.60;98.20;;;;;;5054740;28;20486;-74
2023/02/13 10:25:40;;;;;;;1.70;1.60;;;11.80;98.20;;;;;;5065414;28;20461;-71
2023/02/13 10:28:12;;;;;;;1.60;1.23;;;12.00;98.20;;;;;;5061952;28;20473;-71
2023/02/13 10:30:48;;;;;;;2.63;2.43;;;12.00;98.20;;;;;;5066112;28;20498;-72
2023/02/13 10:33:20;;;;;;;1.57;1.17;;;12.20;98.20;;;;;;5041837;28;20488;-73
2023/02/13 10:35:54;;;;;;;1.50;1.00;;;12.30;98.20;;;;;;5065464;28;21351;-73
2023/02/13 10:38:23;;;;;;;1.83;1.40;;;12.30;98.20;;;;;;5033576;28;20464;-73
2023/02/13 10:41:06;;;;;;;1.60;1.10;;;12.40;98.20;;;;;;5068529;28;20457;-73
2023/02/13 10:43:45;;;;;;;1.57;1.00;;;12.60;98.20;;;;;;5062267;28;20551;-72
2023/02/13 10:46:22;;;;;;;1.60;1.07;;;12.60;98.20;;;;;;5052751;28;20481;-73
2023/02/13 10:49:03;;;;;;;1.60;1.00;;;12.90;98.20;;;;;;5063206;28;20489;-73
2023/02/13 10:51:38;;;;;;;1.60;1.10;;;12.90;98.20;;;;;;5063899;28;20768;-73
2023/02/13 10:54:22;;;;;;;1.60;1.00;;;12.90;98.00;;;;;;5061523;28;20486;-73
2023/02/13 10:57:00;;;;;;;1.60;1.10;;;13.00;98.20;;;;;;5063718;28;20476;-73
2023/02/13 10:59:41;;;;;;;2.47;1.70;;;13.00;97.60;;;;;;5054443;28;20457;-73
2023/02/13 11:02:21;;;;;;;1.70;1.40;;;13.10;98.20;;;;;;5063109;28;20492;-73
2023/02/13 11:04:50;;;;;;;1.53;1.00;;;13.30;98.20;;;;;;5060652;28;20493;-73
2023/02/13 11:07:25;;;;;;;1.57;1.00;;;13.50;98.20;;;;;;5060091;28;20482;-73
2023/02/13 11:09:57;;;;;;;1.60;1.00;;;13.70;96.90;;;;;;5059009;28;20544;-73
2023/02/13 11:12:27;;;;;;;1.60;1.00;;;13.90;96.70;;;;;;5059002;28;20494;-72
2023/02/13 11:14:56;;;;;;;1.60;1.00;;;14.10;96.20;;;;;;5058837;28;20744;-73
2023/02/13 11:17:25;;;;;;;1.70;1.27;;;14.30;94.70;;;;;;5057910;28;20470;-74
2023/02/13 11:19:55;;;;;;;1.53;1.00;;;14.40;93.90;;;;;;5059021;28;20917;-72
2023/02/13 11:22:35;;;;;;;1.60;1.00;;;14.40;93.50;;;;;;5052635;28;20482;-73
2023/02/13 11:25:06;;;;;;;1.60;1.00;;;14.40;93.20;;;;;;5060887;28;20465;-73
2023/02/13 11:27:36;;;;;;;1.60;1.10;;;14.20;92.20;;;;;;5064093;28;20753;-74
2023/02/13 11:30:27;;;;;;;1.60;1.10;;;14.20;92.30;;;;;;5061992;28;21044;-75
2023/02/13 11:33:00;;;;;;;1.60;1.10;;;14.20;92.80;;;;;;5063668;28;20651;-74
2023/02/13 11:35:30;;;;;;;1.60;1.00;;;14.30;94.00;;;;;;5062279;28;20453;-74
2023/02/13 11:38:21;;;;;;;1.57;1.07;;;14.40;92.60;;;;;;5062636;28;20504;-74
2023/02/13 11:41:27;;;;;;;1.50;1.00;;;14.60;93.30;;;;;;5068471;28;20457;-75
2023/02/13 11:44:00;;;;;;;1.60;1.00;;;14.70;92.80;;;;;;5060229;28;20467;-74
2023/02/13 11:46:29;;;;;;;1.60;1.07;;;14.70;90.80;;;;;;5061682;28;20468;-74
2023/02/13 11:49:00;;;;;;;1.60;1.00;;;14.70;92.80;;;;;;5062264;28;20918;-74
2023/02/13 11:51:42;;;;;;;1.50;0.90;;;14.80;91.70;;;;;;5059845;28;20476;-74
2023/02/13 11:54:30;;;;;;;1.60;1.03;;;14.80;91.20;;;;;;5059033;28;20461;-74
2023/02/13 11:56:59;;;;;;;1.60;1.00;;;14.90;90.70;;;;;;5061152;28;20486;-75
2023/02/13 11:59:30;;;;;;;1.57;1.00;;;14.70;90.80;;;;;;5067246;28;20457;-74
2023/02/13 12:02:27;;;;;;;1.60;1.10;;;14.80;91.80;;;;;;5060100;28;20866;-75
2023/02/13 12:05:16;;;;;;;1.60;1.10;;;14.90;91.70;;;;;;4999892;28;20481;-74
2023/02/13 12:07:44;;;;;;;1.60;1.00;;;14.90;89.50;;;;;;5060339;28;20493;-75
2023/02/13 12:10:22;;;;;;;1.53;1.00;;;14.90;89.90;;;;;;5066926;28;20454;-75
2023/02/13 12:12:54;;;;;;;1.70;1.40;;;15.10;90.20;;;;;;5053396;28;20882;-74
2023/02/13 12:15:25;;;;;;;1.60;1.00;;;15.20;89.10;;;;;;5059663;28;20465;-76
2023/02/13 12:18:06;;;;;;;1.90;1.40;;;15.30;88.60;;;;;;5057458;28;20484;-75
2023/02/13 12:20:46;;;;;;;1.60;1.10;;;15.10;88.20;;;;;;5062336;28;20533;-75
2023/02/13 12:23:28;;;;;;;1.53;0.97;;;15.10;89.40;;;;;;5062544;28;20539;-75
2023/02/13 12:26:14;;;;;;;1.60;0.97;;;15.10;89.70;;;;;;5055558;28;20457;-75
2023/02/13 12:29:09;;;;;;;1.60;1.10;;;15.00;88.60;;;;;;5063065;28;20558;-75
2023/02/13 12:31:48;;;;;;;1.57;1.00;;;15.00;90.20;;;;;;5045616;28;20478;-76
2023/02/13 12:34:54;;;;;;;1.53;0.90;;;15.10;89.00;;;;;;5063497;28;21028;-75
2023/02/13 12:37:39;;;;;;;1.60;1.10;;;15.10;88.70;;;;;;5045745;28;20473;-74
2023/02/13 12:40:36;;;;;;;1.60;1.00;;;15.00;89.10;;;;;;5059252;28;20461;-76
2023/02/13 12:43:26;;;;;;;1.53;1.00;;;14.90;89.00;;;;;;5052307;28;20553;-74
2023/02/13 12:46:02;;;;;;;1.50;0.90;;;14.90;89.00;;;;;;5052667;28;20457;-74
2023/02/13 12:48:37;;;;;;;1.57;0.97;;;14.90;89.50;;;;;;5060453;28;20510;-74
2023/02/13 12:51:21;;;;;;;1.53;1.00;;;15.00;90.30;;;;;;5048622;28;22102;-74
2023/02/13 12:54:09;;;;;;;1.60;1.10;;;15.10;89.60;;;;;;5064237;28;20909;-74
2023/02/13 12:57:07;;;;;;;1.57;0.90;;;15.20;88.60;;;;;;5053556;28;20560;-76
2023/02/13 12:59:48;;;;;;;1.60;1.10;;;15.30;88.60;;;;;;5058741;28;20753;-75
2023/02/13 13:02:53;;;;;;;1.53;1.00;;;15.40;87.60;;;;;;5059352;28;20508;-75
2023/02/13 13:05:38;;;;;;;1.60;1.00;;;15.30;87.70;;;;;;5026514;28;20542;-75
2023/02/13 13:08:41;;;;;;;2.00;1.60;;;15.40;88.50;;;;;;5058256;28;20720;-75
2023/02/13 13:11:24;;;;;;;1.60;1.00;;;15.40;87.70;;;;;;5030163;28;20483;-74
2023/02/13 13:13:59;;;;;;;1.57;0.90;;;15.40;87.70;;;;;;5064076;28;20480;-74
2023/02/13 13:16:41;;;;;;;1.60;1.10;;;15.50;88.30;;;;;;5049564;28;20574;-75
2023/02/13 13:19:20;;;;;;;1.60;1.00;;;15.60;87.50;;;;;;5061886;28;20465;-75
2023/02/13 13:21:54;;;;;;;1.50;1.00;;;15.60;88.20;;;;;;5049170;28;20487;-75
2023/02/13 13:24:37;;;;;;;1.50;1.00;;;15.60;87.70;;;;;;5063668;28;20542;-75
2023/02/13 13:27:17;;;;;;;1.57;1.00;;;15.60;87.30;;;;;;5050532;28;20534;-75
2023/02/13 13:29:49;;;;;;;1.90;1.47;;;15.70;88.70;;;;;;5063365;28;20511;-76
2023/02/13 13:32:20;;;;;;;1.57;0.90;;;15.80;87.60;;;;;;5053310;28;20571;-74
2023/02/13 13:34:47;;;;;;;1.60;1.00;;;15.80;86.90;;;;;;5063321;28;20469;-75
2023/02/13 13:37:22;;;;;;;1.50;0.93;;;15.70;87.60;;;;;;5052261;28;20526;-76
2023/02/13 13:39:59;;;;;;;1.60;1.00;;;15.70;88.10;;;;;;5062568;28;20465;-75
2023/02/13 13:42:39;;;;;;;1.60;1.10;;;15.70;88.50;;;;;;5048386;28;20495;-75
2023/02/13 13:45:22;;;;;;;1.50;0.93;;;15.80;87.80;;;;;;5066435;28;20461;-74
2023/02/13 13:48:04;;;;;;;1.60;1.00;;;15.80;86.70;;;;;;5054560;28;20492;-74
2023/02/13 13:50:36;;;;;;;1.50;1.00;;;15.80;86.50;;;;;;5061418;28;20475;-75
2023/02/13 13:53:13;;;;;;;2.23;2.00;;;15.80;87.10;;;;;;5055782;28;21066;-75
2023/02/13 13:56:05;;;;;;;1.57;0.90;;;15.80;86.90;;;;;;5065354;28;20962;-75
2023/02/13 13:58:40;;;;;;;1.87;1.67;;;15.80;85.60;;;;;;5033725;28;20473;-76
2023/02/13 14:01:25;;;;;;;1.60;1.00;;;15.70;86.60;;;;;;5057393;28;20874;-75